sensor_id;sensor_type;location;lat;lon;timestamp;temperature;humidity
26537;DHT22;14204;51.262;5.488;2023-02-25T00:01:23;6.60;99.90
26537;DHT22;14204;51.262;5.488;2023-02-25T00:03:53;6.60;99.90
26537;DHT22;14204;51.262;5.488;2023-02-25T00:06:19;6.60;99.90
26537;DHT22;14204;51.262;5.488;2023-02-25T00:08:47;6.60;99.90
26537;DHT22;14204;51.262;5.488;2023-02-25T00:11:14;6.60;99.90
26537;DHT22;14204;51.262;5.488;2023-02-25T00:13:41;6.60;99.90
26537;DHT22;14204;51.262;5.488;2023-02-25T00:16:08;6.60;99.90
26537;DHT22;14204;51.262;5.488;2023-02-25T00:18:34;6.60;99.90
26537;DHT22;14204;51.262;5.488;2023-02-25T00:21:03;6.60;99.90
26537;DHT22;14204;51.262;5.488;2023-02-25T00:23:29;6.60;99.90
26537;DHT22;14204;51.262;5.488;2023-02-25T00:26:03;6.60;99.90
26537;DHT22;14204;51.262;5.488;2023-02-25T00:28:30;6.60;99.90
26537;DHT22;14204;51.262;5.488;2023-02-25T00:30:55;6.70;99.90
26537;DHT22;14204;51.262;5.488;2023-02-25T00:33:21;6.70;99.90
26537;DHT22;14204;51.262;5.488;2023-02-25T00:35:46;6.70;99.90
26537;DHT22;14204;51.262;5.488;2023-02-25T00:38:15;6.50;99.90
26537;DHT22;14204;51.262;5.488;2023-02-25T00:40:40;6.60;99.90
26537;DHT22;14204;51.262;5.488;2023-02-25T00:43:06;6.50;99.90
26537;DHT22;14204;51.262;5.488;2023-02-25T00:45:32;6.50;99.90
26537;DHT22;14204;51.262;5.488;2023-02-25T00:47:59;6.50;99.90
26537;DHT22;14204;51.262;5.488;2023-02-25T00:50:25;6.60;99.90
26537;DHT22;14204;51.262;5.488;2023-02-25T00:52:51;6.50;99.90
26537;DHT22;14204;51.262;5.488;2023-02-25T00:55:17;6.50;99.90
26537;DHT22;14204;51.262;5.488;2023-02-25T00:57:42;6.50;99.90
26537;DHT22;14204;51.262;5.488;2023-02-25T01:00:09;6.50;99.90
26537;DHT22;14204;51.262;5.488;2023-02-25T01:02:41;6.40;99.90
26537;DHT22;14204;51.262;5.488;2023-02-25T01:05:07;6.40;99.90
26537;DHT22;14204;51.262;5.488;2023-02-25T01:07:33;6.40;99.90
26537;DHT22;14204;51.262;5.488;2023-02-25T01:09:59;6.40;99.90
26537;DHT22;14204;51.262;5.488;2023-02-25T01:12:24;6.40;99.90
26537;DHT22;14204;51.262;5.488;2023-02-25T01:14:50;6.30;99.90
26537;DHT22;14204;51.262;5.488;2023-02-25T01:17:15;6.30;99.90
26537;DHT22;14204;51.262;5.488;2023-02-25T01:19:42;6.30;99.90
26537;DHT22;14204;51.262;5.488;2023-02-25T01:22:08;6.30;99.90
26537;DHT22;14204;51.262;5.488;2023-02-25T01:24:33;6.20;99.90
26537;DHT22;14204;51.262;5.488;2023-02-25T01:27:01;6.20;99.90
26537;DHT22;14204;51.262;5.488;2023-02-25T01:29:31;6.20;99.90
26537;DHT22;14204;51.262;5.488;2023-02-25T01:32:00;6.20;99.90
26537;DHT22;14204;51.262;5.488;2023-02-25T01:34:27;6.20;99.90
26537;DHT22;14204;51.262;5.488;2023-02-25T01:36:53;6.20;99.90
26537;DHT22;14204;51.262;5.488;2023-02-25T01:39:20;6.10;99.90
26537;DHT22;14204;51.262;5.488;2023-02-25T01:41:47;6.10;99.90
26537;DHT22;14204;51.262;5.488;2023-02-25T01:46:48;6.10;99.90
26537;DHT22;14204;51.262;5.488;2023-02-25T01:49:19;6.00;99.90
26537;DHT22;14204;51.262;5.488;2023-02-25T01:51:49;6.00;99.90
26537;DHT22;14204;51.262;5.488;2023-02-25T01:54:16;6.00;99.90
26537;DHT22;14204;51.262;5.488;2023-02-25T01:56:47;6.00;99.90
26537;DHT22;14204;51.262;5.488;2023-02-25T01:59:15;6.00;99.90
26537;DHT22;14204;51.262;5.488;2023-02-25T02:01:43;6.00;99.90
26537;DHT22;14204;51.262;5.488;2023-02-25T02:04:11;5.90;99.90
26537;DHT22;14204;51.262;5.488;2023-02-25T02:06:39;6.00;99.90
26537;DHT22;14204;51.262;5.488;2023-02-25T02:09:09;6.00;99.90
26537;DHT22;14204;51.262;5.488;2023-02-25T02:11:36;6.00;99.90
26537;DHT22;14204;51.262;5.488;2023-02-25T02:14:02;6.00;99.90
26537;DHT22;14204;51.262;5.488;2023-02-25T02:41:40;6.00;99.90
26537;DHT22;14204;51.262;5.488;2023-02-25T02:44:42;6.00;99.90
26537;DHT22;14204;51.262;5.488;2023-02-25T02:47:16;6.00;99.90
26537;DHT22;14204;51.262;5.488;2023-02-25T02:49:47;6.00;99.90
26537;DHT22;14204;51.262;5.488;2023-02-25T02:52:19;6.00;99.90
26537;DHT22;14204;51.262;5.488;2023-02-25T02:55:05;6.00;99.90
26537;DHT22;14204;51.262;5.488;2023-02-25T02:57:33;6.00;99.90
26537;DHT22;14204;51.262;5.488;2023-02-25T03:00:06;6.00;99.90
26537;DHT22;14204;51.262;5.488;2023-02-25T03:02:45;5.90;99.90
26537;DHT22;14204;51.262;5.488;2023-02-25T03:05:15;5.90;99.90
26537;DHT22;14204;51.262;5.488;2023-02-25T03:07:50;5.90;99.90
26537;DHT22;14204;51.262;5.488;2023-02-25T03:10:19;5.90;99.90
26537;DHT22;14204;51.262;5.488;2023-02-25T03:12:46;5.90;99.90
26537;DHT22;14204;51.262;5.488;2023-02-25T03:15:11;5.90;99.90
26537;DHT22;14204;51.262;5.488;2023-02-25T03:17:42;5.90;99.90
26537;DHT22;14204;51.262;5.488;2023-02-25T03:20:16;5.90;99.90
26537;DHT22;14204;51.262;5.488;2023-02-25T03:22:46;5.90;99.90
26537;DHT22;14204;51.262;5.488;2023-02-25T03:28:01;5.90;99.90
26537;DHT22;14204;51.262;5.488;2023-02-25T03:30:31;5.90;99.90
26537;DHT22;14204;51.262;5.488;2023-02-25T03:33:12;5.90;99.90
26537;DHT22;14204;51.262;5.488;2023-02-25T03:35:39;5.80;99.90
26537;DHT22;14204;51.262;5.488;2023-02-25T03:38:09;5.80;99.90
26537;DHT22;14204;51.262;5.488;2023-02-25T03:40:37;5.80;99.90
26537;DHT22;14204;51.262;5.488;2023-02-25T03:43:15;5.80;99.90
26537;DHT22;14204;51.262;5.488;2023-02-25T03:45:42;5.80;99.90
26537;DHT22;14204;51.262;5.488;2023-02-25T03:48:10;5.80;99.90
26537;DHT22;14204;51.262;5.488;2023-02-25T03:50:51;5.80;99.90
26537;DHT22;14204;51.262;5.488;2023-02-25T03:53:18;5.90;99.90
26537;DHT22;14204;51.262;5.488;2023-02-25T03:55:45;5.90;99.90
26537;DHT22;14204;51.262;5.488;2023-02-25T03:58:11;5.90;99.90
26537;DHT22;14204;51.262;5.488;2023-02-25T04:00:38;5.90;99.90
26537;DHT22;14204;51.262;5.488;2023-02-25T04:03:05;5.90;99.90
26537;DHT22;14204;51.262;5.488;2023-02-25T04:05:31;5.90;99.90
26537;DHT22;14204;51.262;5.488;2023-02-25T04:07:58;5.90;99.90
26537;DHT22;14204;51.262;5.488;2023-02-25T04:10:24;6.00;99.90
26537;DHT22;14204;51.262;5.488;2023-02-25T04:12:50;6.00;99.90
26537;DHT22;14204;51.262;5.488;2023-02-25T04:15:16;6.00;99.90
26537;DHT22;14204;51.262;5.488;2023-02-25T04:17:43;6.00;99.90
26537;DHT22;14204;51.262;5.488;2023-02-25T04:20:13;6.00;99.90
26537;DHT22;14204;51.262;5.488;2023-02-25T04:22:40;6.00;99.90
26537;DHT22;14204;51.262;5.488;2023-02-25T04:25:06;6.00;99.90
26537;DHT22;14204;51.262;5.488;2023-02-25T04:27:32;6.00;99.90
26537;DHT22;14204;51.262;5.488;2023-02-25T04:29:58;6.00;99.90
26537;DHT22;14204;51.262;5.488;2023-02-25T04:32:24;6.00;99.90
26537;DHT22;14204;51.262;5.488;2023-02-25T04:34:50;5.90;99.90
26537;DHT22;14204;51.262;5.488;2023-02-25T04:37:15;5.90;99.90
26537;DHT22;14204;51.262;5.488;2023-02-25T04:39:41;6.00;99.90
26537;DHT22;14204;51.262;5.488;2023-02-25T04:42:07;5.90;99.90
26537;DHT22;14204;51.262;5.488;2023-02-25T04:44:33;5.90;99.90
26537;DHT22;14204;51.262;5.488;2023-02-25T04:46:58;5.90;99.90
26537;DHT22;14204;51.262;5.488;2023-02-25T04:49:24;5.80;99.90
26537;DHT22;14204;51.262;5.488;2023-02-25T04:51:50;5.80;99.90
26537;DHT22;14204;51.262;5.488;2023-02-25T04:54:19;5.80;99.90
26537;DHT22;14204;51.262;5.488;2023-02-25T04:56:45;5.80;99.90
26537;DHT22;14204;51.262;5.488;2023-02-25T04:59:11;5.70;99.90
26537;DHT22;14204;51.262;5.488;2023-02-25T05:01:38;5.70;99.90
26537;DHT22;14204;51.262;5.488;2023-02-25T05:04:04;5.60;99.90
26537;DHT22;14204;51.262;5.488;2023-02-25T05:06:29;5.70;99.90
26537;DHT22;14204;51.262;5.488;2023-02-25T05:08:56;5.70;99.90
26537;DHT22;14204;51.262;5.488;2023-02-25T05:11:23;5.70;99.90
26537;DHT22;14204;51.262;5.488;2023-02-25T05:13:50;5.70;99.90
26537;DHT22;14204;51.262;5.488;2023-02-25T05:16:17;5.70;99.90
26537;DHT22;14204;51.262;5.488;2023-02-25T05:18:45;5.70;99.90
26537;DHT22;14204;51.262;5.488;2023-02-25T05:21:13;5.70;99.90
26537;DHT22;14204;51.262;5.488;2023-02-25T05:23:40;5.80;99.90
26537;DHT22;14204;51.262;5.488;2023-02-25T05:26:07;5.80;99.90
26537;DHT22;14204;51.262;5.488;2023-02-25T05:28:33;5.80;99.90
26537;DHT22;14204;51.262;5.488;2023-02-25T05:30:59;5.80;99.90
26537;DHT22;14204;51.262;5.488;2023-02-25T05:33:28;5.80;99.90
26537;DHT22;14204;51.262;5.488;2023-02-25T05:35:54;5.70;99.90
26537;DHT22;14204;51.262;5.488;2023-02-25T05:38:19;5.70;99.90
26537;DHT22;14204;51.262;5.488;2023-02-25T05:40:45;5.70;99.90
26537;DHT22;14204;51.262;5.488;2023-02-25T05:43:10;5.70;99.90
26537;DHT22;14204;51.262;5.488;2023-02-25T05:45:36;5.70;99.90
26537;DHT22;14204;51.262;5.488;2023-02-25T05:48:02;5.70;99.90
26537;DHT22;14204;51.262;5.488;2023-02-25T05:50:27;5.60;99.90
26537;DHT22;14204;51.262;5.488;2023-02-25T05:52:53;5.60;99.90
26537;DHT22;14204;51.262;5.488;2023-02-25T05:55:19;5.60;99.90
26537;DHT22;14204;51.262;5.488;2023-02-25T05:57:44;5.60;99.90
26537;DHT22;14204;51.262;5.488;2023-02-25T06:00:10;5.60;99.90
26537;DHT22;14204;51.262;5.488;2023-02-25T06:02:42;5.60;99.90
26537;DHT22;14204;51.262;5.488;2023-02-25T06:05:08;5.60;99.90
26537;DHT22;14204;51.262;5.488;2023-02-25T06:07:34;5.50;99.90
26537;DHT22;14204;51.262;5.488;2023-02-25T06:10:00;5.50;99.90
26537;DHT22;14204;51.262;5.488;2023-02-25T06:12:30;5.50;99.90
26537;DHT22;14204;51.262;5.488;2023-02-25T06:14:56;5.50;99.90
26537;DHT22;14204;51.262;5.488;2023-02-25T06:17:22;5.50;99.90
26537;DHT22;14204;51.262;5.488;2023-02-25T06:19:51;5.50;99.90
26537;DHT22;14204;51.262;5.488;2023-02-25T06:22:21;5.50;99.90
26537;DHT22;14204;51.262;5.488;2023-02-25T06:24:46;5.40;99.90
26537;DHT22;14204;51.262;5.488;2023-02-25T06:27:13;5.40;99.90
26537;DHT22;14204;51.262;5.488;2023-02-25T06:29:39;5.40;99.90
26537;DHT22;14204;51.262;5.488;2023-02-25T06:32:09;5.30;99.90
26537;DHT22;14204;51.262;5.488;2023-02-25T06:34:35;5.40;99.90
26537;DHT22;14204;51.262;5.488;2023-02-25T06:37:01;5.40;99.90
26537;DHT22;14204;51.262;5.488;2023-02-25T06:39:26;5.30;99.90
26537;DHT22;14204;51.262;5.488;2023-02-25T06:41:52;5.30;99.90
26537;DHT22;14204;51.262;5.488;2023-02-25T06:44:18;5.30;99.90
26537;DHT22;14204;51.262;5.488;2023-02-25T06:46:43;5.20;99.90
26537;DHT22;14204;51.262;5.488;2023-02-25T06:49:09;5.20;99.90
26537;DHT22;14204;51.262;5.488;2023-02-25T06:51:35;5.20;99.90
26537;DHT22;14204;51.262;5.488;2023-02-25T06:54:02;5.30;99.90
26537;DHT22;14204;51.262;5.488;2023-02-25T06:56:28;5.30;99.90
26537;DHT22;14204;51.262;5.488;2023-02-25T06:58:55;5.30;99.90
26537;DHT22;14204;51.262;5.488;2023-02-25T07:01:24;5.30;99.90
26537;DHT22;14204;51.262;5.488;2023-02-25T07:03:50;5.20;99.90
26537;DHT22;14204;51.262;5.488;2023-02-25T07:06:16;5.20;99.90
26537;DHT22;14204;51.262;5.488;2023-02-25T07:08:43;5.20;99.90
26537;DHT22;14204;51.262;5.488;2023-02-25T07:13:46;5.20;99.90
26537;DHT22;14204;51.262;5.488;2023-02-25T07:16:13;5.20;99.90
26537;DHT22;14204;51.262;5.488;2023-02-25T07:18:40;5.30;99.90
26537;DHT22;14204;51.262;5.488;2023-02-25T07:21:06;5.20;99.90
26537;DHT22;14204;51.262;5.488;2023-02-25T07:23:32;5.20;99.90
26537;DHT22;14204;51.262;5.488;2023-02-25T07:26:02;5.20;99.90
26537;DHT22;14204;51.262;5.488;2023-02-25T07:28:28;5.30;99.90
26537;DHT22;14204;51.262;5.488;2023-02-25T07:30:53;5.30;99.90
26537;DHT22;14204;51.262;5.488;2023-02-25T07:33:19;5.20;99.90
26537;DHT22;14204;51.262;5.488;2023-02-25T07:35:45;5.30;99.90
26537;DHT22;14204;51.262;5.488;2023-02-25T07:38:10;5.40;99.90
26537;DHT22;14204;51.262;5.488;2023-02-25T07:40:37;5.40;99.90
26537;DHT22;14204;51.262;5.488;2023-02-25T07:43:05;5.40;99.90
26537;DHT22;14204;51.262;5.488;2023-02-25T07:45:31;5.40;99.90
26537;DHT22;14204;51.262;5.488;2023-02-25T07:47:57;5.50;99.90
26537;DHT22;14204;51.262;5.488;2023-02-25T07:50:22;5.50;99.90
26537;DHT22;14204;51.262;5.488;2023-02-25T07:52:48;5.50;99.90
26537;DHT22;14204;51.262;5.488;2023-02-25T07:55:14;5.60;99.90
26537;DHT22;14204;51.262;5.488;2023-02-25T07:57:40;5.50;99.90
26537;DHT22;14204;51.262;5.488;2023-02-25T08:00:06;5.60;99.90
26537;DHT22;14204;51.262;5.488;2023-02-25T08:02:35;5.60;99.90
26537;DHT22;14204;51.262;5.488;2023-02-25T08:05:01;5.60;99.90
26537;DHT22;14204;51.262;5.488;2023-02-25T08:07:28;5.60;99.90
26537;DHT22;14204;51.262;5.488;2023-02-25T08:09:54;5.70;99.90
26537;DHT22;14204;51.262;5.488;2023-02-25T08:12:20;5.70;99.90
26537;DHT22;14204;51.262;5.488;2023-02-25T08:14:46;5.70;99.90
26537;DHT22;14204;51.262;5.488;2023-02-25T08:17:12;5.80;99.90
26537;DHT22;14204;51.262;5.488;2023-02-25T08:19:38;5.80;99.90
26537;DHT22;14204;51.262;5.488;2023-02-25T08:22:04;5.80;99.90
26537;DHT22;14204;51.262;5.488;2023-02-25T08:24:30;5.80;99.90
26537;DHT22;14204;51.262;5.488;2023-02-25T08:26:56;5.80;99.90
26537;DHT22;14204;51.262;5.488;2023-02-25T08:29:22;5.80;99.90
26537;DHT22;14204;51.262;5.488;2023-02-25T08:31:51;5.90;99.90
26537;DHT22;14204;51.262;5.488;2023-02-25T08:34:17;6.10;99.90
26537;DHT22;14204;51.262;5.488;2023-02-25T08:36:43;6.30;99.90
26537;DHT22;14204;51.262;5.488;2023-02-25T08:39:09;6.40;99.90
26537;DHT22;14204;51.262;5.488;2023-02-25T08:41:35;6.40;99.90
26537;DHT22;14204;51.262;5.488;2023-02-25T08:44:02;6.40;99.90
26537;DHT22;14204;51.262;5.488;2023-02-25T08:46:30;6.40;99.90
26537;DHT22;14204;51.262;5.488;2023-02-25T08:48:56;6.40;99.90
26537;DHT22;14204;51.262;5.488;2023-02-25T08:51:23;6.50;99.90
26537;DHT22;14204;51.262;5.488;2023-02-25T08:53:49;6.40;99.90
26537;DHT22;14204;51.262;5.488;2023-02-25T08:56:15;6.50;99.90
26537;DHT22;14204;51.262;5.488;2023-02-25T08:58:42;6.50;99.90
26537;DHT22;14204;51.262;5.488;2023-02-25T09:01:09;6.60;99.90
26537;DHT22;14204;51.262;5.488;2023-02-25T09:03:42;6.60;99.90
26537;DHT22;14204;51.262;5.488;2023-02-25T09:06:16;6.70;99.90
26537;DHT22;14204;51.262;5.488;2023-02-25T09:08:42;6.80;99.90
26537;DHT22;14204;51.262;5.488;2023-02-25T09:11:07;6.90;99.90
26537;DHT22;14204;51.262;5.488;2023-02-25T09:13:33;7.00;99.90
26537;DHT22;14204;51.262;5.488;2023-02-25T09:15:59;7.10;99.90
26537;DHT22;14204;51.262;5.488;2023-02-25T09:18:25;7.10;99.90
26537;DHT22;14204;51.262;5.488;2023-02-25T09:20:51;7.10;99.90
26537;DHT22;14204;51.262;5.488;2023-02-25T09:23:17;7.00;99.90
26537;DHT22;14204;51.262;5.488;2023-02-25T09:25:43;7.10;99.90
26537;DHT22;14204;51.262;5.488;2023-02-25T09:28:10;7.20;99.90
26537;DHT22;14204;51.262;5.488;2023-02-25T09:30:36;7.30;99.90
26537;DHT22;14204;51.262;5.488;2023-02-25T09:33:02;7.40;99.90
26537;DHT22;14204;51.262;5.488;2023-02-25T09:35:28;7.40;99.90
26537;DHT22;14204;51.262;5.488;2023-02-25T09:37:54;7.50;99.90
26537;DHT22;14204;51.262;5.488;2023-02-25T09:40:19;7.50;99.90
26537;DHT22;14204;51.262;5.488;2023-02-25T09:43:10;7.50;99.90
26537;DHT22;14204;51.262;5.488;2023-02-25T09:45:39;7.60;99.90
26537;DHT22;14204;51.262;5.488;2023-02-25T09:48:26;7.70;99.90
26537;DHT22;14204;51.262;5.488;2023-02-25T09:51:17;7.60;99.90
26537;DHT22;14204;51.262;5.488;2023-02-25T09:53:51;7.60;99.90
26537;DHT22;14204;51.262;5.488;2023-02-25T09:56:19;7.60;99.90
26537;DHT22;14204;51.262;5.488;2023-02-25T09:58:52;7.60;99.90
26537;DHT22;14204;51.262;5.488;2023-02-25T10:01:37;7.70;99.90
26537;DHT22;14204;51.262;5.488;2023-02-25T10:06:42;7.80;99.90
26537;DHT22;14204;51.262;5.488;2023-02-25T10:12:09;7.90;99.90
26537;DHT22;14204;51.262;5.488;2023-02-25T10:17:35;8.30;99.90
26537;DHT22;14204;51.262;5.488;2023-02-25T10:23:19;8.10;99.90
26537;DHT22;14204;51.262;5.488;2023-02-25T10:26:07;8.30;99.90
26537;DHT22;14204;51.262;5.488;2023-02-25T10:28:38;8.50;99.90
26537;DHT22;14204;51.262;5.488;2023-02-25T10:31:15;8.70;99.90
26537;DHT22;14204;51.262;5.488;2023-02-25T10:33:45;8.70;99.90
26537;DHT22;14204;51.262;5.488;2023-02-25T10:36:16;8.70;99.90
26537;DHT22;14204;51.262;5.488;2023-02-25T10:38:44;8.70;99.90
26537;DHT22;14204;51.262;5.488;2023-02-25T10:41:11;8.80;99.90
26537;DHT22;14204;51.262;5.488;2023-02-25T10:43:37;8.80;99.90
26537;DHT22;14204;51.262;5.488;2023-02-25T10:46:09;8.90;99.90
26537;DHT22;14204;51.262;5.488;2023-02-25T10:48:37;8.80;99.90
26537;DHT22;14204;51.262;5.488;2023-02-25T10:51:13;8.90;99.90
26537;DHT22;14204;51.262;5.488;2023-02-25T10:53:59;8.90;99.90
26537;DHT22;14204;51.262;5.488;2023-02-25T10:56:43;8.90;99.90
26537;DHT22;14204;51.262;5.488;2023-02-25T11:01:53;8.90;99.90
26537;DHT22;14204;51.262;5.488;2023-02-25T11:04:26;8.80;99.90
26537;DHT22;14204;51.262;5.488;2023-02-25T11:06:52;8.60;99.90
26537;DHT22;14204;51.262;5.488;2023-02-25T11:14:35;7.90;99.90
26537;DHT22;14204;51.262;5.488;2023-02-25T11:17:17;7.80;99.90
26537;DHT22;14204;51.262;5.488;2023-02-25T11:19:47;7.80;99.90
26537;DHT22;14204;51.262;5.488;2023-02-25T11:22:21;7.80;99.90
26537;DHT22;14204;51.262;5.488;2023-02-25T11:25:00;7.80;99.90
26537;DHT22;14204;51.262;5.488;2023-02-25T11:27:37;7.80;99.90
26537;DHT22;14204;51.262;5.488;2023-02-25T11:32:51;8.10;99.90
26537;DHT22;14204;51.262;5.488;2023-02-25T11:35:23;8.20;99.90
26537;DHT22;14204;51.262;5.488;2023-02-25T11:37:55;8.20;99.90
26537;DHT22;14204;51.262;5.488;2023-02-25T11:40:29;8.20;99.90
26537;DHT22;14204;51.262;5.488;2023-02-25T11:48:47;8.20;99.90
26537;DHT22;14204;51.262;5.488;2023-02-25T11:57:36;8.40;99.90
26537;DHT22;14204;51.262;5.488;2023-02-25T12:05:33;8.40;99.90
26537;DHT22;14204;51.262;5.488;2023-02-25T12:08:18;8.30;99.90
26537;DHT22;14204;51.262;5.488;2023-02-25T12:17:17;8.30;99.90
26537;DHT22;14204;51.262;5.488;2023-02-25T12:55:41;7.60;99.90
26537;DHT22;14204;51.262;5.488;2023-02-25T12:58:42;7.50;99.90
26537;DHT22;14204;51.262;5.488;2023-02-25T13:12:33;7.90;99.90
26537;DHT22;14204;51.262;5.488;2023-02-25T13:20:52;8.00;99.90
26537;DHT22;14204;51.262;5.488;2023-02-25T13:32:23;8.20;99.90
26537;DHT22;14204;51.262;5.488;2023-02-25T13:43:46;8.30;99.90
26537;DHT22;14204;51.262;5.488;2023-02-25T13:49:46;8.40;99.90
26537;DHT22;14204;51.262;5.488;2023-02-25T14:06:44;8.50;99.90
26537;DHT22;14204;51.262;5.488;2023-02-25T14:09:42;8.60;99.90
26537;DHT22;14204;51.262;5.488;2023-02-25T14:12:41;8.60;99.90
26537;DHT22;14204;51.262;5.488;2023-02-25T14:29:27;8.80;99.90
26537;DHT22;14204;51.262;5.488;2023-02-25T14:35:23;8.60;99.90
26537;DHT22;14204;51.262;5.488;2023-02-25T14:38:10;8.60;99.90
26537;DHT22;14204;51.262;5.488;2023-02-25T14:45:31;8.40;99.90
26537;DHT22;14204;51.262;5.488;2023-02-25T14:48:05;8.50;99.90
26537;DHT22;14204;51.262;5.488;2023-02-25T14:50:58;8.50;99.90
26537;DHT22;14204;51.262;5.488;2023-02-25T15:01:29;8.50;99.90
26537;DHT22;14204;51.262;5.488;2023-02-25T15:12:14;8.30;99.90
26537;DHT22;14204;51.262;5.488;2023-02-25T15:15:07;8.20;99.90
26537;DHT22;14204;51.262;5.488;2023-02-25T15:23:03;8.10;99.90
26537;DHT22;14204;51.262;5.488;2023-02-25T15:33:41;8.20;99.90
26537;DHT22;14204;51.262;5.488;2023-02-25T15:38:53;8.20;99.90
26537;DHT22;14204;51.262;5.488;2023-02-25T15:43:56;8.10;99.90
26537;DHT22;14204;51.262;5.488;2023-02-25T15:49:33;8.00;99.90
26537;DHT22;14204;51.262;5.488;2023-02-25T15:52:01;8.00;99.90
26537;DHT22;14204;51.262;5.488;2023-02-25T15:56:55;7.80;99.90
26537;DHT22;14204;51.262;5.488;2023-02-25T15:59:44;7.70;99.90
26537;DHT22;14204;51.262;5.488;2023-02-25T16:07:38;7.60;99.90
26537;DHT22;14204;51.262;5.488;2023-02-25T16:12:41;7.50;99.90
26537;DHT22;14204;51.262;5.488;2023-02-25T16:15:13;7.50;99.90
26537;DHT22;14204;51.262;5.488;2023-02-25T16:17:39;7.50;99.90
26537;DHT22;14204;51.262;5.488;2023-02-25T16:20:29;7.40;99.90
26537;DHT22;14204;51.262;5.488;2023-02-25T16:22:59;7.50;99.90
26537;DHT22;14204;51.262;5.488;2023-02-25T16:26:20;7.50;99.90
26537;DHT22;14204;51.262;5.488;2023-02-25T16:28:29;7.50;99.90
26537;DHT22;14204;51.262;5.488;2023-02-25T16:31:36;7.30;99.90
26537;DHT22;14204;51.262;5.488;2023-02-25T16:34:32;7.40;99.90
26537;DHT22;14204;51.262;5.488;2023-02-25T16:37:20;7.40;99.90
26537;DHT22;14204;51.262;5.488;2023-02-25T16:39:49;7.30;99.90
26537;DHT22;14204;51.262;5.488;2023-02-25T16:42:16;7.30;99.90
26537;DHT22;14204;51.262;5.488;2023-02-25T16:44:54;7.30;99.90
26537;DHT22;14204;51.262;5.488;2023-02-25T16:47:26;7.30;99.90
26537;DHT22;14204;51.262;5.488;2023-02-25T16:49:53;7.20;99.90
26537;DHT22;14204;51.262;5.488;2023-02-25T16:52:33;7.20;99.90
26537;DHT22;14204;51.262;5.488;2023-02-25T16:55:04;7.10;99.90
26537;DHT22;14204;51.262;5.488;2023-02-25T16:57:33;6.90;99.90
26537;DHT22;14204;51.262;5.488;2023-02-25T17:00:19;6.90;99.90
26537;DHT22;14204;51.262;5.488;2023-02-25T17:02:50;6.90;99.90
26537;DHT22;14204;51.262;5.488;2023-02-25T17:05:32;6.90;99.90
26537;DHT22;14204;51.262;5.488;2023-02-25T17:08:03;6.90;99.90
26537;DHT22;14204;51.262;5.488;2023-02-25T17:10:51;6.90;99.90
26537;DHT22;14204;51.262;5.488;2023-02-25T17:13:40;6.90;99.90
26537;DHT22;14204;51.262;5.488;2023-02-25T17:16:20;6.70;99.90
26537;DHT22;14204;51.262;5.488;2023-02-25T17:18:54;6.80;99.90
26537;DHT22;14204;51.262;5.488;2023-02-25T17:24:00;6.60;99.90
26537;DHT22;14204;51.262;5.488;2023-02-25T17:26:28;6.60;99.90
26537;DHT22;14204;51.262;5.488;2023-02-25T17:28:56;6.60;99.90
26537;DHT22;14204;51.262;5.488;2023-02-25T17:31:25;6.60;99.90
26537;DHT22;14204;51.262;5.488;2023-02-25T17:36:27;6.60;99.90
26537;DHT22;14204;51.262;5.488;2023-02-25T17:39:06;6.60;99.90
26537;DHT22;14204;51.262;5.488;2023-02-25T17:41:33;6.60;99.90
26537;DHT22;14204;51.262;5.488;2023-02-25T17:43:59;6.60;99.90
26537;DHT22;14204;51.262;5.488;2023-02-25T17:46:40;6.60;99.90
26537;DHT22;14204;51.262;5.488;2023-02-25T17:49:25;6.50;99.90
26537;DHT22;14204;51.262;5.488;2023-02-25T17:52:00;6.50;99.90
26537;DHT22;14204;51.262;5.488;2023-02-25T17:54:28;6.40;99.90
26537;DHT22;14204;51.262;5.488;2023-02-25T17:57:00;6.40;99.90
26537;DHT22;14204;51.262;5.488;2023-02-25T17:59:36;6.40;99.90
26537;DHT22;14204;51.262;5.488;2023-02-25T18:02:36;6.40;99.90
26537;DHT22;14204;51.262;5.488;2023-02-25T18:05:19;6.30;99.90
26537;DHT22;14204;51.262;5.488;2023-02-25T18:08:23;6.20;99.90
26537;DHT22;14204;51.262;5.488;2023-02-25T18:13:30;6.20;99.90
26537;DHT22;14204;51.262;5.488;2023-02-25T18:16:49;6.10;99.90
26537;DHT22;14204;51.262;5.488;2023-02-25T18:19:23;6.10;99.90
26537;DHT22;14204;51.262;5.488;2023-02-25T18:21:49;6.00;99.90
26537;DHT22;14204;51.262;5.488;2023-02-25T18:24:31;6.00;99.90
26537;DHT22;14204;51.262;5.488;2023-02-25T18:27:20;5.90;99.90
26537;DHT22;14204;51.262;5.488;2023-02-25T18:29:46;5.90;99.90
26537;DHT22;14204;51.262;5.488;2023-02-25T18:32:12;5.90;99.90
26537;DHT22;14204;51.262;5.488;2023-02-25T18:34:38;5.80;99.90
26537;DHT22;14204;51.262;5.488;2023-02-25T18:37:03;5.70;99.90
26537;DHT22;14204;51.262;5.488;2023-02-25T18:39:29;5.70;99.90
26537;DHT22;14204;51.262;5.488;2023-02-25T18:41:55;5.60;99.90
26537;DHT22;14204;51.262;5.488;2023-02-25T18:44:21;5.50;99.90
26537;DHT22;14204;51.262;5.488;2023-02-25T18:46:46;5.50;99.90
26537;DHT22;14204;51.262;5.488;2023-02-25T18:49:12;5.60;99.90
26537;DHT22;14204;51.262;5.488;2023-02-25T18:51:37;5.50;99.90
26537;DHT22;14204;51.262;5.488;2023-02-25T18:54:04;5.40;99.90
26537;DHT22;14204;51.262;5.488;2023-02-25T18:56:29;5.40;99.90
26537;DHT22;14204;51.262;5.488;2023-02-25T18:58:55;5.40;99.90
26537;DHT22;14204;51.262;5.488;2023-02-25T19:01:24;5.40;99.90
26537;DHT22;14204;51.262;5.488;2023-02-25T19:03:50;5.40;99.90
26537;DHT22;14204;51.262;5.488;2023-02-25T19:06:16;5.40;99.90
26537;DHT22;14204;51.262;5.488;2023-02-25T19:08:42;5.30;99.90
26537;DHT22;14204;51.262;5.488;2023-02-25T19:11:22;5.30;99.90
26537;DHT22;14204;51.262;5.488;2023-02-25T19:13:48;5.30;99.90
26537;DHT22;14204;51.262;5.488;2023-02-25T19:16:13;5.20;99.90
26537;DHT22;14204;51.262;5.488;2023-02-25T19:18:41;5.20;99.90
26537;DHT22;14204;51.262;5.488;2023-02-25T19:21:15;5.20;99.90
26537;DHT22;14204;51.262;5.488;2023-02-25T19:23:42;5.20;99.90
26537;DHT22;14204;51.262;5.488;2023-02-25T19:26:08;5.10;99.90
26537;DHT22;14204;51.262;5.488;2023-02-25T19:28:33;5.10;99.90
26537;DHT22;14204;51.262;5.488;2023-02-25T19:30:59;5.10;99.90
26537;DHT22;14204;51.262;5.488;2023-02-25T19:33:25;5.10;99.90
26537;DHT22;14204;51.262;5.488;2023-02-25T19:35:51;5.00;99.90
26537;DHT22;14204;51.262;5.488;2023-02-25T19:38:19;5.00;99.90
26537;DHT22;14204;51.262;5.488;2023-02-25T19:40:47;4.90;99.90
26537;DHT22;14204;51.262;5.488;2023-02-25T19:43:13;4.90;99.90
26537;DHT22;14204;51.262;5.488;2023-02-25T19:45:40;4.90;99.90
26537;DHT22;14204;51.262;5.488;2023-02-25T19:48:06;4.90;99.90
26537;DHT22;14204;51.262;5.488;2023-02-25T19:50:32;4.90;99.90
26537;DHT22;14204;51.262;5.488;2023-02-25T19:53:00;4.80;99.90
26537;DHT22;14204;51.262;5.488;2023-02-25T19:55:27;4.80;99.90
26537;DHT22;14204;51.262;5.488;2023-02-25T19:57:52;4.80;99.90
26537;DHT22;14204;51.262;5.488;2023-02-25T20:00:20;4.80;99.90
26537;DHT22;14204;51.262;5.488;2023-02-25T20:02:47;4.70;99.90
26537;DHT22;14204;51.262;5.488;2023-02-25T20:05:13;4.80;99.90
26537;DHT22;14204;51.262;5.488;2023-02-25T20:07:39;4.70;99.90
26537;DHT22;14204;51.262;5.488;2023-02-25T20:10:06;4.70;99.90